Time;durP1;ratioP1;P1;durP2;ratioP2;P2;SDS_P1;SDS_P2;PMS_P1;PMS_P2;Temp;Humidity;BMP_temperature;BMP_pressure;BME280_temperature;BME280_humidity;BME280_pressure;Samples;Min_cycle;Max_cycle;Signal;HPM_P1;HPM_P2
2022/07/07 00:00:55;;;;;;;3.22;1.48;;;;;;;16.36;100.00;101811.44;5024606;28;20053;-77
2022/07/07 00:03:21;;;;;;;5.55;1.40;;;;;;;16.36;100.00;101807.88;5024525;28;20041;-80
2022/07/07 00:05:47;;;;;;;2.90;1.58;;;;;;;16.34;100.00;101799.94;5024515;28;20372;-76
2022/07/07 00:08:12;;;;;;;2.67;1.50;;;;;;;16.33;100.00;101798.22;5019849;28;20372;-75
2022/07/07 00:10:38;;;;;;;3.10;1.30;;;;;;;16.32;100.00;101815.22;5024840;28;20034;-77
2022/07/07 00:13:04;;;;;;;2.58;1.73;;;;;;;16.30;100.00;101814.44;5001026;28;20106;-77
2022/07/07 00:15:30;;;;;;;3.38;1.80;;;;;;;16.20;100.00;101816.75;5023688;28;20044;-76
2022/07/07 00:17:55;;;;;;;2.30;1.70;;;;;;;16.05;100.00;101815.75;5025044;28;20033;-74
2022/07/07 00:20:21;;;;;;;2.65;1.45;;;;;;;15.91;100.00;101812.91;5023182;28;20029;-73
2022/07/07 00:22:49;;;;;;;3.28;1.75;;;;;;;15.78;100.00;101805.53;5007378;28;20179;-76
2022/07/07 00:25:18;;;;;;;2.53;1.88;;;;;;;15.67;100.00;101813.25;5024194;28;20436;-79
2022/07/07 00:27:43;;;;;;;4.68;1.83;;;;;;;15.59;100.00;101806.50;5024805;28;20041;-76
2022/07/07 00:30:10;;;;;;;2.75;1.85;;;;;;;15.53;100.00;101801.47;5024937;28;20056;-74
2022/07/07 00:32:35;;;;;;;3.55;2.30;;;;;;;15.48;100.00;101807.03;5023379;28;20083;-77
2022/07/07 00:35:01;;;;;;;3.50;1.90;;;;;;;15.45;100.00;101798.34;5025411;28;20044;-76
2022/07/07 00:37:26;;;;;;;2.65;1.90;;;;;;;15.41;100.00;101799.44;5009059;28;20063;-76
2022/07/07 00:39:52;;;;;;;4.78;2.28;;;;;;;15.39;100.00;101793.31;5037739;28;20029;-75
2022/07/07 00:42:17;;;;;;;3.20;2.28;;;;;;;15.37;100.00;101784.53;5035764;28;20043;-77
2022/07/07 00:44:43;;;;;;;3.88;2.70;;;;;;;15.36;100.00;101772.97;5026311;28;20103;-76
2022/07/07 00:47:09;;;;;;;4.50;3.15;;;;;;;15.33;100.00;101773.16;5024838;28;20556;-79
2022/07/07 00:49:38;;;;;;;3.75;2.10;;;;;;;15.31;100.00;101751.03;5022808;28;20036;-77
2022/07/07 00:52:06;;;;;;;5.20;2.10;;;;;;;15.30;100.00;101763.50;5024733;28;20017;-79
2022/07/07 00:54:35;;;;;;;3.92;2.00;;;;;;;15.29;100.00;101767.09;5022846;28;20102;-78
2022/07/07 00:57:05;;;;;;;4.35;2.10;;;;;;;15.28;100.00;101746.72;5018280;28;20059;-74
2022/07/07 00:59:31;;;;;;;4.57;2.20;;;;;;;15.27;100.00;101758.34;5019085;28;20205;-77
2022/07/07 01:01:57;;;;;;;2.22;2.03;;;;;;;15.26;100.00;101745.06;5000534;28;20491;-76
2022/07/07 01:04:23;;;;;;;2.28;2.05;;;;;;;15.25;100.00;101741.53;5001768;28;20086;-77
2022/07/07 01:06:48;;;;;;;4.00;2.53;;;;;;;15.24;100.00;101747.81;5024068;28;20033;-77
2022/07/07 01:09:14;;;;;;;7.43;3.00;;;;;;;15.24;100.00;101749.63;5018221;28;20581;-77
2022/07/07 01:11:55;;;;;;;3.70;2.85;;;;;;;15.22;100.00;101728.34;5022472;28;20099;-78
2022/07/07 01:14:22;;;;;;;6.32;2.50;;;;;;;15.19;100.00;101740.03;5022860;28;20179;-78
2022/07/07 01:16:48;;;;;;;6.03;2.53;;;;;;;15.19;100.00;101734.69;5018063;28;20039;-77
2022/07/07 01:19:15;;;;;;;5.55;2.50;;;;;;;15.19;100.00;101728.50;5023861;28;20116;-77
2022/07/07 01:21:57;;;;;;;7.45;2.60;;;;;;;15.20;100.00;101724.91;5018529;28;20060;-76
2022/07/07 01:24:25;;;;;;;5.07;2.58;;;;;;;15.19;100.00;101729.38;5001385;28;20403;-80
2022/07/07 01:27:06;;;;;;;9.13;2.65;;;;;;;15.19;100.00;101724.03;5024633;28;20044;-74
2022/07/07 01:29:41;;;;;;;3.83;1.85;;;;;;;15.21;100.00;101718.63;5005320;28;20035;-74
2022/07/07 01:32:10;;;;;;;6.57;2.33;;;;;;;15.22;100.00;101712.34;5027405;28;20033;-74
2022/07/07 01:34:37;;;;;;;5.53;2.40;;;;;;;15.23;100.00;101714.06;5006252;28;20523;-77
2022/07/07 01:37:04;;;;;;;6.38;2.40;;;;;;;15.21;100.00;101715.97;5027046;28;20033;-77
2022/07/07 01:39:30;;;;;;;6.70;2.65;;;;;;;15.23;100.00;101706.06;5026994;28;20199;-80
2022/07/07 01:41:56;;;;;;;4.80;2.47;;;;;;;15.25;100.00;101708.66;5028096;28;20034;-79
2022/07/07 01:44:21;;;;;;;5.68;2.60;;;;;;;15.26;100.00;101708.56;5027750;28;20098;-77
2022/07/07 01:46:47;;;;;;;4.65;2.00;;;;;;;15.27;100.00;101720.09;5027690;28;20080;-83
2022/07/07 01:49:13;;;;;;;6.00;2.08;;;;;;;15.23;100.00;101703.41;5025801;28;20128;-74
2022/07/07 01:51:39;;;;;;;3.65;1.70;;;;;;;15.24;100.00;101706.94;5027355;28;20051;-77
2022/07/07 01:54:04;;;;;;;2.55;1.50;;;;;;;15.22;100.00;101709.69;5027651;28;20032;-77
2022/07/07 01:56:30;;;;;;;4.75;1.42;;;;;;;15.20;100.00;101716.91;5027222;28;20717;-76
2022/07/07 01:58:55;;;;;;;3.38;1.20;;;;;;;15.16;100.00;101716.16;5028096;28;21375;-77
2022/07/07 02:01:21;;;;;;;5.38;1.15;;;;;;;15.13;100.00;101716.34;5025812;28;20045;-78
2022/07/07 02:03:46;;;;;;;7.60;1.40;;;;;;;15.11;100.00;101709.34;5025954;28;20044;-77
2022/07/07 02:06:12;;;;;;;3.85;1.10;;;;;;;15.09;100.00;101703.25;5026008;28;20041;-77
2022/07/07 02:08:37;;;;;;;4.15;1.30;;;;;;;15.04;100.00;101701.66;5025132;28;20032;-76
2022/07/07 02:11:15;;;;;;;2.90;1.25;;;;;;;15.04;100.00;101709.66;5025992;28;20389;-77
2022/07/07 02:13:43;;;;;;;2.00;1.27;;;;;;;15.03;100.00;101707.09;5020408;28;20049;-77
2022/07/07 02:16:10;;;;;;;2.67;1.48;;;;;;;15.02;100.00;101706.22;5024777;28;20056;-77
2022/07/07 02:18:37;;;;;;;4.00;1.42;;;;;;;15.02;100.00;101706.22;5026878;28;20480;-76
2022/07/07 02:21:04;;;;;;;7.40;1.50;;;;;;;15.00;100.00;101704.56;5008950;28;20037;-76
2022/07/07 02:23:30;;;;;;;3.78;1.77;;;;;;;14.99;100.00;101697.53;5026855;28;20037;-76
2022/07/07 02:25:56;;;;;;;4.20;1.50;;;;;;;14.99;100.00;101695.69;5020955;28;20033;-77
2022/07/07 02:28:23;;;;;;;2.97;1.83;;;;;;;14.99;100.00;101695.69;5026917;28;20037;-77
2022/07/07 02:30:51;;;;;;;6.72;1.58;;;;;;;14.98;100.00;101693.97;5008436;28;20427;-76
2022/07/07 02:33:18;;;;;;;6.07;2.10;;;;;;;14.98;100.00;101696.66;5038426;28;20043;-74
2022/07/07 02:35:44;;;;;;;4.40;1.75;;;;;;;14.99;100.00;101687.69;5026279;28;20143;-79
2022/07/07 02:38:10;;;;;;;4.90;1.83;;;;;;;14.98;100.00;101693.13;5026498;28;20036;-77
2022/07/07 02:40:36;;;;;;;7.93;1.90;;;;;;;14.99;100.00;101690.38;5020463;28;20637;-76
2022/07/07 02:43:01;;;;;;;5.70;1.55;;;;;;;15.00;100.00;101694.78;5024543;28;20082;-77
2022/07/07 02:45:27;;;;;;;3.22;1.50;;;;;;;15.01;100.00;101685.84;5026907;28;20029;-78
2022/07/07 02:47:52;;;;;;;3.90;1.13;;;;;;;15.01;100.00;101688.50;5026414;28;20033;-78
2022/07/07 02:50:18;;;;;;;5.25;1.23;;;;;;;15.00;100.00;101692.13;5025559;28;20048;-77
2022/07/07 02:52:44;;;;;;;2.55;0.80;;;;;;;14.98;100.00;101688.66;4991778;28;20040;-78
2022/07/07 02:55:10;;;;;;;3.72;1.30;;;;;;;14.97;100.00;101686.94;5027070;28;20095;-77
2022/07/07 02:57:36;;;;;;;4.20;0.90;;;;;;;14.93;100.00;101686.22;5024912;28;20527;-76
2022/07/07 03:00:06;;;;;;;1.27;0.75;;;;;;;14.94;100.00;101687.09;5025196;28;20028;-76
2022/07/07 03:02:31;;;;;;;3.28;0.93;;;;;;;14.92;100.00;101700.50;5003026;28;20040;-78
2022/07/07 03:05:00;;;;;;;4.60;0.85;;;;;;;14.91;100.00;101705.91;5019870;28;20072;-78
2022/07/07 03:07:26;;;;;;;3.03;1.02;;;;;;;14.87;100.00;101702.53;5026501;28;20557;-78
2022/07/07 03:09:52;;;;;;;3.28;0.93;;;;;;;14.85;100.00;101708.88;5024008;28;20041;-77
2022/07/07 03:12:17;;;;;;;2.72;0.88;;;;;;;14.79;100.00;101713.59;5024051;28;20450;-78
2022/07/07 03:14:43;;;;;;;2.13;1.05;;;;;;;14.77;100.00;101710.09;5025663;28;20400;-77
2022/07/07 03:17:09;;;;;;;3.78;0.82;;;;;;;14.72;100.00;101706.81;5025919;28;20107;-77
2022/07/07 03:19:34;;;;;;;2.90;0.80;;;;;;;14.69;100.00;101712.25;5025197;28;20483;-79
2022/07/07 03:22:03;;;;;;;3.90;1.05;;;;;;;14.63;100.00;101705.44;5025027;28;20493;-77
2022/07/07 03:24:31;;;;;;;2.60;0.65;;;;;;;14.61;100.00;101711.78;5009160;28;20044;-74
2022/07/07 03:26:59;;;;;;;2.92;0.77;;;;;;;14.57;100.00;101720.84;5003439;28;20045;-78
2022/07/07 03:29:25;;;;;;;1.90;0.75;;;;;;;14.52;100.00;101724.63;5019714;28;20416;-74
2022/07/07 03:31:51;;;;;;;3.70;0.70;;;;;;;14.47;100.00;101723.97;5025192;28;20511;-79
2022/07/07 03:34:17;;;;;;;2.78;0.70;;;;;;;14.45;100.00;101716.97;5025329;28;20045;-79
2022/07/07 03:36:42;;;;;;;0.98;0.50;;;;;;;14.42;100.00;101720.66;5025426;28;20503;-78
2022/07/07 03:39:11;;;;;;;4.53;0.88;;;;;;;14.38;100.00;101727.94;5008364;28;20055;-73
2022/07/07 03:41:37;;;;;;;2.33;0.68;;;;;;;14.35;100.00;101732.53;5010452;28;20091;-80
2022/07/07 03:44:03;;;;;;;3.05;1.08;;;;;;;14.35;100.00;101721.88;5040713;28;20567;-79
2022/07/07 03:46:29;;;;;;;1.98;0.93;;;;;;;14.32;100.00;101733.53;5034287;28;20071;-77
2022/07/07 03:48:55;;;;;;;4.60;0.80;;;;;;;14.32;100.00;101740.69;5024715;28;20665;-78
2022/07/07 03:51:21;;;;;;;1.60;0.70;;;;;;;14.31;100.00;101745.13;5006729;28;20037;-79
2022/07/07 03:53:46;;;;;;;6.07;0.90;;;;;;;14.29;100.00;101743.47;5024434;28;20037;-78
2022/07/07 03:56:12;;;;;;;6.70;0.90;;;;;;;14.28;100.00;101758.63;5023648;28;20640;-81
2022/07/07 03:58:37;;;;;;;2.60;1.02;;;;;;;14.24;100.00;101757.91;5026376;28;20033;-80
2022/07/07 04:01:03;;;;;;;1.58;0.80;;;;;;;14.23;100.00;101749.97;5024852;28;20039;-79
2022/07/07 04:03:29;;;;;;;2.97;0.70;;;;;;;14.18;100.00;101763.50;5022706;28;20500;-83
2022/07/07 04:05:57;;;;;;;1.70;0.90;;;;;;;14.15;100.00;101762.78;5024552;28;20075;-80
2022/07/07 04:08:22;;;;;;;4.25;0.85;;;;;;;14.10;100.00;101761.19;5022486;28;20043;-81
2022/07/07 04:10:50;;;;;;;4.85;0.60;;;;;;;14.09;100.00;101758.59;5023957;28;20026;-83
2022/07/07 04:13:19;;;;;;;2.90;0.80;;;;;;;14.08;100.00;101764.84;5023803;28;20049;-79
2022/07/07 04:15:44;;;;;;;3.08;0.77;;;;;;;14.07;100.00;101765.78;5023411;28;20043;-79
2022/07/07 04:18:12;;;;;;;2.33;0.75;;;;;;;14.07;100.00;101768.44;5007296;28;20034;-85
2022/07/07 04:20:38;;;;;;;2.70;0.60;;;;;;;14.07;100.00;101772.00;5023315;28;20393;-80
2022/07/07 04:23:03;;;;;;;2.03;0.60;;;;;;;14.06;100.00;101764.91;5023175;28;20041;-77
2022/07/07 04:25:29;;;;;;;2.53;0.70;;;;;;;14.08;100.00;101773.72;5022496;28;20588;-79
2022/07/07 04:27:57;;;;;;;3.83;0.80;;;;;;;14.12;100.00;101785.09;5024863;28;20099;-82
2022/07/07 04:30:23;;;;;;;3.92;0.63;;;;;;;14.12;100.00;101779.75;5022886;28;20516;-78
2022/07/07 04:33:07;;;;;;;2.22;1.00;;;;;;;14.14;100.00;101780.53;5024198;28;20033;-76
2022/07/07 04:35:33;;;;;;;4.25;1.35;;;;;;;14.15;100.00;101778.75;5024815;28;20063;-78
2022/07/07 04:37:59;;;;;;;2.70;1.30;;;;;;;14.18;100.00;101778.59;5023488;28;20036;-78
2022/07/07 04:40:24;;;;;;;6.20;1.20;;;;;;;14.18;100.00;101779.47;5024498;28;20431;-80
2022/07/07 04:42:50;;;;;;;1.63;0.80;;;;;;;14.20;100.00;101788.25;4989693;28;20032;-76
2022/07/07 04:45:18;;;;;;;5.57;0.95;;;;;;;14.24;100.00;101795.19;5025010;28;20453;-82
2022/07/07 04:47:44;;;;;;;3.47;0.80;;;;;;;14.24;100.00;101794.31;5022978;28;20739;-77
2022/07/07 04:50:11;;;;;;;4.47;1.20;;;;;;;14.26;100.00;101795.09;5022990;28;20567;-76
2022/07/07 04:52:40;;;;;;;5.40;1.05;;;;;;;14.24;100.00;101795.19;5023454;28;20426;-77
2022/07/07 04:55:07;;;;;;;6.13;1.55;;;;;;;14.24;100.00;101803.19;5024842;28;20033;-75
2022/07/07 04:57:36;;;;;;;5.00;1.02;;;;;;;14.21;100.00;101797.09;5024749;28;20458;-76
2022/07/07 05:00:05;;;;;;;5.28;1.00;;;;;;;14.24;100.00;101811.16;5024374;28;20178;-78
2022/07/07 05:02:31;;;;;;;5.00;1.23;;;;;;;14.25;100.00;101815.56;5027202;28;20041;-78
2022/07/07 05:04:58;;;;;;;8.32;1.40;;;;;;;14.29;100.00;101818.06;5028010;28;20052;-76
2022/07/07 05:07:23;;;;;;;1.70;0.80;;;;;;;14.33;100.00;101817.00;5028529;28;20124;-83
2022/07/07 05:09:49;;;;;;;3.65;0.90;;;;;;;14.36;100.00;101820.38;5028510;28;20021;-78
2022/07/07 05:12:15;;;;;;;3.70;0.95;;;;;;;14.42;100.00;101829.03;5028476;28;20075;-78
2022/07/07 05:14:43;;;;;;;2.40;0.90;;;;;;;14.44;100.00;101822.66;5026449;28;20143;-77
2022/07/07 05:17:09;;;;;;;3.40;1.00;;;;;;;14.45;100.00;101829.75;5027867;28;20084;-78
2022/07/07 05:19:35;;;;;;;4.50;0.85;;;;;;;14.47;100.00;101833.22;5005400;28;20119;-76
2022/07/07 05:22:00;;;;;;;3.30;1.48;;;;;;;14.47;100.00;101827.88;5037939;28;20041;-78
2022/07/07 05:24:26;;;;;;;5.20;0.93;;;;;;;14.48;100.00;101837.59;5027436;28;20067;-78
2022/07/07 05:26:51;;;;;;;3.97;1.33;;;;;;;14.49;100.00;101839.31;5027384;28;20535;-77
2022/07/07 05:29:20;;;;;;;3.97;1.27;;;;;;;14.57;100.00;101843.41;5027770;28;20365;-77
2022/07/07 05:31:45;;;;;;;2.97;0.85;;;;;;;14.59;100.00;101854.91;5029397;28;20033;-76
2022/07/07 05:34:11;;;;;;;2.42;1.45;;;;;;;14.59;100.00;101868.22;5027186;28;20675;-80
2022/07/07 05:36:37;;;;;;;1.48;0.73;;;;;;;14.55;100.00;101859.50;5029086;28;20074;-77
2022/07/07 05:39:06;;;;;;;1.48;0.85;;;;;;;14.51;100.00;101856.09;5027077;28;20094;-85
2022/07/07 05:41:31;;;;;;;3.20;0.95;;;;;;;14.42;100.00;101867.19;5004696;28;20476;-86
2022/07/07 05:43:57;;;;;;;2.47;0.75;;;;;;;14.40;100.00;101872.56;5028367;28;20036;-80
2022/07/07 05:46:22;;;;;;;2.05;0.75;;;;;;;14.43;100.00;101871.56;5026989;28;20025;-77
2022/07/07 05:48:48;;;;;;;3.90;0.73;;;;;;;14.46;100.00;101863.44;5027081;28;20507;-79
2022/07/07 05:51:13;;;;;;;5.30;1.13;;;;;;;14.51;100.00;101880.06;4993507;28;20036;-79
2022/07/07 05:53:39;;;;;;;1.63;0.80;;;;;;;14.56;100.00;101874.56;5010183;28;20037;-77
2022/07/07 05:56:04;;;;;;;3.92;0.88;;;;;;;14.57;100.00;101880.72;5027297;28;20033;-77
2022/07/07 05:58:30;;;;;;;4.65;1.10;;;;;;;14.56;100.00;101879.88;5027113;28;20033;-78
2022/07/07 06:00:56;;;;;;;2.03;0.80;;;;;;;14.61;100.00;101880.50;5027435;28;20099;-76
2022/07/07 06:03:21;;;;;;;2.13;0.68;;;;;;;14.62;100.00;101881.38;5026634;28;20161;-77
2022/07/07 06:05:47;;;;;;;3.35;0.77;;;;;;;14.67;100.00;101880.22;5027431;28;20044;-78
2022/07/07 06:08:13;;;;;;;2.08;0.57;;;;;;;14.87;100.00;101889.13;5027926;28;20120;-78
2022/07/07 06:10:39;;;;;;;2.55;0.70;;;;;;;14.97;100.00;101894.06;5026358;28;20037;-78
2022/07/07 06:13:05;;;;;;;2.67;0.77;;;;;;;15.03;100.00;101896.44;5004380;28;20064;-79
2022/07/07 06:15:33;;;;;;;1.27;0.50;;;;;;;15.10;100.00;101910.31;5002780;28;20542;-80
2022/07/07 06:18:03;;;;;;;3.70;0.60;;;;;;;15.11;100.00;101914.72;5026104;28;20025;-76
2022/07/07 06:20:29;;;;;;;2.03;0.73;;;;;;;15.12;100.00;101921.75;5024577;28;20210;-77
2022/07/07 06:22:55;;;;;;;1.73;0.50;;;;;;;15.10;100.00;101923.66;5026516;28;20041;-78
2022/07/07 06:25:20;;;;;;;1.48;0.60;;;;;;;15.12;100.00;101929.78;5026146;28;20091;-76
2022/07/07 06:27:46;;;;;;;2.20;0.68;;;;;;;15.19;100.00;101931.19;5026815;28;20029;-75
2022/07/07 06:30:12;;;;;;;0.47;0.47;;;;;;;15.30;100.00;101926.22;5027558;28;20035;-76
2022/07/07 06:32:37;;;;;;;2.22;0.80;;;;;;;15.35;100.00;101926.00;5024194;28;20052;-77
2022/07/07 06:35:04;;;;;;;2.45;0.52;;;;;;;15.39;100.00;101937.38;5020675;28;20045;-79
2022/07/07 06:37:38;;;;;;;0.93;0.50;;;;;;;15.39;100.00;101916.03;5025236;28;20112;-81
2022/07/07 06:40:04;;;;;;;2.70;0.68;;;;;;;15.40;100.00;101931.09;5009106;28;20033;-78
2022/07/07 06:42:29;;;;;;;4.13;0.77;;;;;;;15.44;100.00;101927.34;5020677;28;20041;-79
2022/07/07 06:44:55;;;;;;;3.78;0.70;;;;;;;15.39;100.00;101940.06;5026996;28;20033;-78
2022/07/07 06:47:23;;;;;;;2.40;0.77;;;;;;;15.31;100.00;101946.63;5009601;28;20038;-79
2022/07/07 06:49:48;;;;;;;1.45;0.47;;;;;;;15.24;100.00;101945.19;5025630;28;20098;-78
2022/07/07 06:52:14;;;;;;;0.45;0.45;;;;;;;15.24;100.00;101950.53;5025639;28;20080;-78
2022/07/07 06:54:39;;;;;;;0.98;0.47;;;;;;;15.30;100.00;101949.34;5003427;28;20038;-77
2022/07/07 06:57:06;;;;;;;1.20;0.50;;;;;;;15.37;100.00;101949.94;5039043;28;21842;-78
2022/07/07 06:59:35;;;;;;;2.20;0.70;;;;;;;15.56;100.00;101947.22;5009186;28;20033;-79
2022/07/07 07:02:01;;;;;;;2.85;0.60;;;;;;;15.80;100.00;101942.47;5033139;28;20548;-84
2022/07/07 07:04:27;;;;;;;3.97;0.93;;;;;;;15.92;100.00;101945.50;5005640;28;20044;-78
2022/07/07 07:06:53;;;;;;;2.60;0.70;;;;;;;15.98;100.00;101948.75;4987483;28;20037;-78
2022/07/07 07:09:18;;;;;;;1.30;0.90;;;;;;;16.18;100.00;101970.03;5025539;28;20164;-78
2022/07/07 07:11:44;;;;;;;1.52;0.63;;;;;;;16.31;100.00;101968.44;5024595;28;20041;-81
2022/07/07 07:14:09;;;;;;;2.72;0.70;;;;;;;16.43;100.00;101977.63;5024327;28;20061;-77
2022/07/07 07:16:35;;;;;;;1.00;0.60;;;;;;;16.47;100.00;101978.34;5024680;28;20041;-78
2022/07/07 07:19:01;;;;;;;2.90;0.68;;;;;;;16.41;100.00;101976.84;5026352;28;20435;-81
2022/07/07 07:21:27;;;;;;;3.85;1.55;;;;;;;16.41;100.00;101968.84;5024791;28;20037;-78
2022/07/07 07:23:55;;;;;;;2.83;0.85;;;;;;;16.54;100.00;101958.34;5023402;28;20045;-76
2022/07/07 07:26:21;;;;;;;3.55;0.90;;;;;;;16.64;100.00;101974.78;5025547;28;20052;-80
2022/07/07 07:28:47;;;;;;;3.85;0.70;;;;;;;16.62;100.00;101990.88;5003476;28;20041;-80
2022/07/07 07:31:12;;;;;;;1.60;0.60;;;;;;;16.51;100.00;102012.84;5025437;28;20423;-84
2022/07/07 07:33:38;;;;;;;3.63;0.77;;;;;;;16.20;100.00;102016.22;5025100;28;20091;-78
2022/07/07 07:36:07;;;;;;;2.80;0.70;;;;;;;15.82;100.00;102023.38;5022999;28;20071;-85
2022/07/07 07:38:37;;;;;;;1.10;0.50;;;;;;;15.63;100.00;102009.19;5024947;28;20036;-79
2022/07/07 07:41:11;;;;;;;0.98;0.50;;;;;;;15.54;100.00;102008.72;5024147;28;20171;-78
2022/07/07 07:43:36;;;;;;;1.73;0.50;;;;;;;15.45;100.00;102015.34;5025915;28;20336;-79
2022/07/07 07:46:05;;;;;;;1.65;0.55;;;;;;;15.49;100.00;102016.06;5003008;28;20497;-80
2022/07/07 07:48:31;;;;;;;0.68;0.30;;;;;;;15.72;100.00;102009.63;5026089;28;20033;-77
2022/07/07 07:50:57;;;;;;;1.45;0.50;;;;;;;15.99;100.00;102003.00;5019286;28;20064;-78
2022/07/07 07:53:23;;;;;;;1.35;0.50;;;;;;;16.28;100.00;102006.88;5023561;28;20036;-76
2022/07/07 07:55:50;;;;;;;3.05;0.80;;;;;;;16.55;100.00;102019.75;5024955;28;20134;-78
2022/07/07 07:58:20;;;;;;;2.67;0.70;;;;;;;16.89;100.00;102006.41;5023194;28;20060;-83
2022/07/07 08:00:46;;;;;;;2.70;1.10;;;;;;;17.16;100.00;102015.72;5024711;28;20040;-78
2022/07/07 08:03:12;;;;;;;2.70;0.80;;;;;;;17.17;100.00;102023.66;5024043;28;20029;-77
2022/07/07 08:05:37;;;;;;;1.75;0.82;;;;;;;17.04;100.00;102030.63;5023406;28;20593;-87
2022/07/07 08:08:03;;;;;;;3.78;1.02;;;;;;;16.94;100.00;102022.22;5024761;28;20124;-77
2022/07/07 08:10:32;;;;;;;4.85;0.82;;;;;;;16.99;100.00;102021.97;5007642;28;20033;-79
2022/07/07 08:12:57;;;;;;;3.30;0.80;;;;;;;17.16;100.00;102019.25;5025352;28;20128;-76
2022/07/07 08:15:23;;;;;;;5.53;0.80;;;;;;;17.27;100.00;102025.84;5001259;28;20630;-80
2022/07/07 08:17:49;;;;;;;2.00;0.98;;;;;;;17.21;100.00;102022.53;5018248;28;20067;-79
2022/07/07 08:20:15;;;;;;;2.20;0.60;;;;;;;17.12;100.00;102023.06;5022975;28;20144;-84
2022/07/07 08:22:40;;;;;;;4.75;0.90;;;;;;;16.97;100.00;102038.97;5025242;28;20033;-77
2022/07/07 08:25:06;;;;;;;2.60;0.95;;;;;;;16.76;100.00;102043.63;5024603;28;20244;-82
2022/07/07 08:27:35;;;;;;;2.80;0.77;;;;;;;16.58;100.00;102041.91;5018551;28;20226;-74
2022/07/07 08:30:01;;;;;;;4.43;0.85;;;;;;;16.54;100.00;102044.75;5024208;28;20049;-80
2022/07/07 08:32:27;;;;;;;2.83;0.60;;;;;;;16.60;100.00;102040.91;5023862;28;20167;-77
2022/07/07 08:34:52;;;;;;;2.83;0.68;;;;;;;16.75;100.00;102035.69;5025117;28;20033;-77
2022/07/07 08:37:18;;;;;;;2.42;0.70;;;;;;;16.86;100.00;102041.34;5024154;28;20101;-77
2022/07/07 08:39:44;;;;;;;3.10;0.90;;;;;;;16.93;100.00;102052.56;5022494;28;20036;-78
2022/07/07 08:42:11;;;;;;;2.05;0.70;;;;;;;16.84;100.00;102061.97;5018749;28;20127;-78
2022/07/07 08:44:36;;;;;;;4.60;0.90;;;;;;;16.60;100.00;102064.97;5022350;28;21457;-78
2022/07/07 08:47:03;;;;;;;2.55;1.08;;;;;;;16.50;100.00;102061.88;5022129;28;20086;-78
2022/07/07 08:49:30;;;;;;;2.47;0.80;;;;;;;16.62;100.00;102068.41;5023585;28;20024;-81
2022/07/07 08:51:56;;;;;;;1.33;0.55;;;;;;;16.65;100.00;102073.63;5023719;28;20033;-76
2022/07/07 08:54:24;;;;;;;0.63;0.47;;;;;;;16.63;100.00;102075.50;5022354;28;20492;-77
2022/07/07 08:56:50;;;;;;;1.88;0.50;;;;;;;16.61;100.00;102088.06;5034528;28;20033;-76
2022/07/07 08:59:15;;;;;;;2.28;0.85;;;;;;;16.74;100.00;102084.75;5034900;28;20028;-77
2022/07/07 09:01:52;;;;;;;3.38;0.60;;;;;;;16.89;100.00;102088.47;5022362;28;20061;-76
2022/07/07 09:04:18;;;;;;;2.50;0.70;;;;;;;16.92;100.00;102090.97;5017702;28;21503;-77
2022/07/07 09:07:00;;;;;;;0.80;0.63;;;;;;;16.80;100.00;102104.03;5023965;28;20049;-78
2022/07/07 09:09:39;;;;;;;3.00;0.85;;;;;;;16.73;100.00;102097.28;5023987;28;20029;-77
2022/07/07 09:12:06;;;;;;;1.90;0.50;;;;;;;17.01;100.00;102100.31;5023718;28;20500;-80
2022/07/07 09:14:42;;;;;;;2.05;0.60;;;;;;;17.29;100.00;102112.25;5023004;28;20053;-79
2022/07/07 09:17:26;;;;;;;1.55;0.68;;;;;;;17.30;100.00;102111.28;5024160;28;21541;-77
2022/07/07 09:20:05;;;;;;;1.45;0.55;;;;;;;17.05;100.00;102136.69;5018845;28;20060;-76
2022/07/07 09:22:55;;;;;;;2.08;0.90;;;;;;;16.81;100.00;102131.63;5034156;28;20648;-83
2022/07/07 09:25:23;;;;;;;3.05;1.05;;;;;;;16.63;100.00;102139.66;5017442;28;20143;-78
2022/07/07 09:28:06;;;;;;;1.23;0.40;;;;;;;16.61;100.00;102146.88;5023147;28;20045;-76
2022/07/07 09:30:46;;;;;;;1.13;0.40;;;;;;;16.77;100.00;102133.59;5024087;28;20039;-81
2022/07/07 09:33:13;;;;;;;1.33;0.40;;;;;;;17.01;100.00;102152.00;5018636;28;20811;-79
2022/07/07 09:38:31;;;;;;;3.40;0.60;;;;;;;16.86;100.00;102164.38;5023908;28;20230;-80
2022/07/07 09:41:12;;;;;;;1.95;0.55;;;;;;;16.65;100.00;102164.50;5005361;28;20072;-83
2022/07/07 09:43:44;;;;;;;3.15;0.82;;;;;;;16.56;100.00;102167.63;5001345;28;20156;-77
2022/07/07 09:46:18;;;;;;;2.40;0.70;;;;;;;16.49;100.00;102174.22;5022868;28;20455;-78
2022/07/07 09:48:46;;;;;;;7.45;1.00;;;;;;;16.35;100.00;102189.13;5024466;28;20059;-77
2022/07/07 09:51:14;;;;;;;2.45;0.90;;;;;;;16.22;100.00;102196.00;5025766;28;20032;-79
2022/07/07 09:54:06;;;;;;;2.13;0.70;;;;;;;16.13;100.00;102200.84;5026903;28;20021;-77
2022/07/07 09:56:37;;;;;;;2.20;0.90;;;;;;;16.09;100.00;102215.31;5004137;28;20669;-80
2022/07/07 09:59:06;;;;;;;1.27;1.13;;;;;;;16.00;100.00;102223.75;4994183;28;20036;-78
2022/07/07 10:01:34;;;;;;;4.85;0.98;;;;;;;15.84;100.00;102229.75;5025051;28;20065;-80
2022/07/07 10:04:04;;;;;;;5.13;1.17;;;;;;;15.66;100.00;102242.16;5026694;28;20033;-80
2022/07/07 10:06:31;;;;;;;4.22;1.00;;;;;;;15.48;100.00;102250.03;5026875;28;20031;-84
2022/07/07 10:09:03;;;;;;;1.33;0.80;;;;;;;15.38;100.00;102243.38;5027617;28;20480;-81
2022/07/07 10:11:35;;;;;;;8.77;1.00;;;;;;;15.29;100.00;102246.44;5036899;28;20144;-83
2022/07/07 10:14:09;;;;;;;;;;;;;;;15.29;100.00;102244.63;5033262;28;20059;-79
2022/07/07 10:16:35;;;;;;;;;;;;;;;15.32;100.00;102252.50;5012591;28;19925;-77
2022/07/07 10:19:01;;;;;;;2.22;0.85;;;;;;;15.42;100.00;102258.31;5037924;28;19921;-77
2022/07/07 10:21:27;;;;;;;5.63;1.02;;;;;;;15.54;100.00;102264.03;5026645;28;20052;-76
2022/07/07 10:23:53;;;;;;;3.35;1.10;;;;;;;15.71;100.00;102271.31;5007755;28;20425;-78
2022/07/07 10:26:37;;;;;;;2.70;1.00;;;;;;;15.82;100.00;102277.03;5027061;28;20029;-79
2022/07/07 10:29:06;;;;;;;1.73;0.80;;;;;;;15.92;100.00;102274.84;5019682;28;20034;-81
2022/07/07 10:31:32;;;;;;;2.05;0.98;;;;;;;16.00;100.00;102280.72;5027612;28;20037;-77
2022/07/07 10:34:02;;;;;;;6.28;1.38;;;;;;;15.97;99.90;102293.34;5025376;28;20036;-77
2022/07/07 10:36:46;;;;;;;5.03;1.17;;;;;;;15.94;99.53;102301.47;5008821;28;20040;-81
2022/07/07 10:39:13;;;;;;;8.60;1.83;;;;;;;15.93;100.00;102295.28;5026614;28;20036;-78
2022/07/07 10:41:57;;;;;;;8.75;1.55;;;;;;;15.92;98.04;102322.03;5025222;28;20171;-75
2022/07/07 10:44:23;;;;;;;6.15;1.75;;;;;;;15.82;94.30;102322.44;5024419;28;20033;-81
2022/07/07 10:47:02;;;;;;;3.80;1.13;;;;;;;15.72;92.89;102327.31;5009077;28;20029;-80
2022/07/07 10:49:40;;;;;;;7.40;1.48;;;;;;;15.74;92.16;102314.75;5026566;28;20037;-89
2022/07/07 10:52:21;;;;;;;4.35;1.02;;;;;;;15.84;94.00;102327.69;5004482;28;20483;-78
2022/07/07 10:55:02;;;;;;;2.47;0.70;;;;;;;15.99;86.14;102336.84;5023663;28;20048;-76
2022/07/07 10:57:38;;;;;;;1.20;0.75;;;;;;;16.05;89.66;102349.94;5019926;28;20560;-77
2022/07/07 11:00:10;;;;;;;4.43;1.02;;;;;;;16.14;88.76;102341.50;5026172;28;20037;-78
2022/07/07 11:02:49;;;;;;;6.05;0.90;;;;;;;16.25;89.40;102341.00;5020384;28;20090;-78
2022/07/07 11:05:15;;;;;;;3.45;0.88;;;;;;;16.40;90.72;102342.13;5018953;28;20177;-77
2022/07/07 11:08:02;;;;;;;4.03;0.95;;;;;;;16.52;83.37;102347.84;5026792;28;20636;-80
2022/07/07 11:10:50;;;;;;;3.20;0.90;;;;;;;16.58;85.83;102355.56;5003467;28;20032;-79
2022/07/07 11:13:33;;;;;;;3.65;0.80;;;;;;;16.64;83.76;102360.63;5024866;28;20045;-76
2022/07/07 11:16:21;;;;;;;3.75;0.80;;;;;;;16.64;81.05;102378.47;5024990;28;20487;-80
2022/07/07 11:19:02;;;;;;;5.40;0.93;;;;;;;16.66;80.23;102373.91;5025438;28;20041;-80
2022/07/07 11:21:44;;;;;;;3.63;0.90;;;;;;;16.65;80.92;102372.19;5026049;28;20727;-79
2022/07/07 11:24:21;;;;;;;5.28;0.90;;;;;;;16.60;80.50;102385.75;5025143;28;20116;-83
2022/07/07 11:26:58;;;;;;;2.45;1.00;;;;;;;16.55;82.88;102377.97;5026284;28;20080;-75